createdAt,value
2023-02-05T00:00:43.453Z,1.57
2023-02-05T00:03:10.000Z,1.20
2023-02-05T00:05:36.568Z,1.70
2023-02-05T00:08:03.256Z,1.50
2023-02-05T00:10:29.736Z,2.00
2023-02-05T00:12:56.587Z,1.63
2023-02-05T00:15:23.153Z,1.40
2023-02-05T00:17:49.699Z,1.87
2023-02-05T00:20:16.453Z,1.80
2023-02-05T00:22:42.972Z,1.73
2023-02-05T00:25:09.475Z,2.07
2023-02-05T00:27:36.345Z,1.87
2023-02-05T00:30:03.291Z,1.60
2023-02-05T00:32:29.940Z,1.93
2023-02-05T00:34:56.906Z,1.60
2023-02-05T00:37:23.843Z,1.87
2023-02-05T00:39:50.363Z,2.30
2023-02-05T00:42:16.893Z,1.90
2023-02-05T00:44:43.480Z,1.80
2023-02-05T00:47:10.005Z,2.50
2023-02-05T00:49:36.881Z,1.70
2023-02-05T00:52:05.062Z,1.80
2023-02-05T00:54:31.751Z,2.20
2023-02-05T00:56:58.503Z,2.03
2023-02-05T00:59:25.014Z,1.87
2023-02-05T01:01:51.748Z,2.17
2023-02-05T01:04:20.544Z,2.30
2023-02-05T01:06:47.454Z,1.80
2023-02-05T01:09:13.986Z,1.40
2023-02-05T01:11:40.547Z,2.17
2023-02-05T01:14:07.042Z,1.50
2023-02-05T01:16:33.593Z,1.77
2023-02-05T01:19:00.313Z,1.40
2023-02-05T01:21:27.039Z,2.13
2023-02-05T01:23:54.832Z,2.43
2023-02-05T01:26:21.419Z,1.73
2023-02-05T01:28:48.447Z,2.20
2023-02-05T01:31:15.154Z,1.77
2023-02-05T01:33:41.839Z,1.80
2023-02-05T01:36:08.711Z,1.67
2023-02-05T01:38:35.202Z,2.03
2023-02-05T01:41:01.896Z,1.70
2023-02-05T01:43:28.410Z,1.80
2023-02-05T01:46:06.810Z,1.83
2023-02-05T01:48:42.312Z,1.50
2023-02-05T01:51:14.016Z,1.73
2023-02-05T01:53:41.524Z,1.70
2023-02-05T01:56:12.742Z,2.33
2023-02-05T01:58:47.996Z,1.60
2023-02-05T02:01:15.434Z,1.80
2023-02-05T02:03:41.999Z,1.47
2023-02-05T02:06:09.766Z,2.00
2023-02-05T02:08:36.312Z,1.80
2023-02-05T02:11:05.794Z,2.00
2023-02-05T02:13:35.672Z,1.70
2023-02-05T02:16:06.557Z,2.00
2023-02-05T02:18:36.401Z,2.07
2023-02-05T02:21:25.978Z,1.70
2023-02-05T02:24:03.393Z,2.47
2023-02-05T02:26:50.974Z,2.03
2023-02-05T02:29:25.086Z,2.20
2023-02-05T02:32:00.191Z,2.03
2023-02-05T02:34:36.889Z,2.17
2023-02-05T02:37:18.427Z,1.77
2023-02-05T02:39:57.383Z,2.20
2023-02-05T02:42:41.779Z,2.60
2023-02-05T02:45:12.973Z,1.80
2023-02-05T02:47:48.876Z,2.10
2023-02-05T02:50:32.603Z,2.00
2023-02-05T02:53:04.435Z,2.17
2023-02-05T02:55:36.254Z,2.07
2023-02-05T02:58:06.856Z,2.83
2023-02-05T03:00:34.388Z,2.30
2023-02-05T03:03:05.467Z,1.70
2023-02-05T03:05:36.119Z,2.27
2023-02-05T03:08:09.005Z,2.50
2023-02-05T03:10:44.479Z,2.07
2023-02-05T03:13:13.918Z,2.70
2023-02-05T03:15:46.452Z,2.33
2023-02-05T03:18:16.241Z,2.40
2023-02-05T03:20:56.986Z,2.63
2023-02-05T03:23:24.599Z,2.97
2023-02-05T03:25:51.384Z,2.23
2023-02-05T03:28:23.444Z,2.50
2023-02-05T03:30:53.387Z,2.17
2023-02-05T03:34:06.188Z,2.83
2023-02-05T03:37:00.324Z,2.60
2023-02-05T03:39:33.058Z,2.57
2023-02-05T03:42:08.513Z,3.17
2023-02-05T03:45:04.437Z,2.90
2023-02-05T03:47:42.311Z,2.83
2023-02-05T03:50:29.378Z,2.80
2023-02-05T03:53:25.388Z,2.67
2023-02-05T03:56:04.913Z,2.80
2023-02-05T03:58:41.907Z,2.77
2023-02-05T04:01:11.459Z,2.80
2023-02-05T04:03:39.313Z,3.33
2023-02-05T04:06:06.992Z,2.60
2023-02-05T04:08:34.536Z,3.03
2023-02-05T04:11:02.404Z,3.20
2023-02-05T04:13:29.596Z,2.47
2023-02-05T04:15:56.987Z,2.70
2023-02-05T04:18:23.798Z,2.63
2023-02-05T04:20:51.037Z,2.77
2023-02-05T04:23:21.450Z,2.53
2023-02-05T04:25:53.323Z,2.40
2023-02-05T04:28:22.227Z,3.13
2023-02-05T04:30:50.021Z,2.40
2023-02-05T04:33:16.583Z,2.90
2023-02-05T04:35:43.810Z,2.47
2023-02-05T04:38:10.650Z,2.70
2023-02-05T04:40:37.272Z,2.90
2023-02-05T04:43:03.770Z,2.80
2023-02-05T04:45:31.305Z,2.70
2023-02-05T04:47:59.435Z,2.77
2023-02-05T04:50:26.656Z,2.90
2023-02-05T04:52:53.227Z,2.57
2023-02-05T04:55:19.768Z,2.40
2023-02-05T04:57:46.249Z,2.30
2023-02-05T05:00:13.511Z,2.47
2023-02-05T05:02:40.014Z,2.47
2023-02-05T05:05:07.040Z,2.57
2023-02-05T05:07:33.544Z,2.97
2023-02-05T05:10:00.046Z,2.67
2023-02-05T05:12:26.559Z,2.23
2023-02-05T05:14:53.048Z,2.67
2023-02-05T05:17:19.949Z,2.67
2023-02-05T05:19:46.616Z,3.20
2023-02-05T05:22:13.111Z,2.60
2023-02-05T05:24:39.592Z,2.20
2023-02-05T05:27:06.223Z,2.90
2023-02-05T05:29:33.015Z,3.10
2023-02-05T05:31:59.525Z,2.23
2023-02-05T05:34:26.163Z,3.27
2023-02-05T05:36:53.853Z,2.50
2023-02-05T05:39:40.554Z,2.80
2023-02-05T05:42:25.674Z,2.60
2023-02-05T05:44:52.895Z,2.50
2023-02-05T05:47:19.422Z,2.60
2023-02-05T05:49:46.382Z,2.13
2023-02-05T05:52:13.336Z,2.67
2023-02-05T05:54:39.884Z,2.37
2023-02-05T05:57:07.440Z,2.60
2023-02-05T05:59:34.438Z,2.30
2023-02-05T06:02:02.187Z,3.33
2023-02-05T06:04:29.001Z,2.87
2023-02-05T06:06:55.781Z,2.70
2023-02-05T06:09:22.313Z,2.90
2023-02-05T06:11:48.825Z,2.20
2023-02-05T06:14:15.739Z,2.43
2023-02-05T06:16:42.235Z,2.80
2023-02-05T06:19:08.951Z,2.80
2023-02-05T06:21:35.727Z,2.43
2023-02-05T06:24:02.785Z,3.10
2023-02-05T06:26:29.306Z,2.87
2023-02-05T06:28:57.132Z,3.07
2023-02-05T06:31:24.009Z,2.70
2023-02-05T06:33:50.530Z,2.87
2023-02-05T06:36:17.037Z,3.07
2023-02-05T06:38:43.527Z,2.73
2023-02-05T06:41:10.031Z,3.00
2023-02-05T06:43:36.872Z,3.80
2023-02-05T06:46:03.509Z,3.30
2023-02-05T06:48:30.087Z,2.80
2023-02-05T06:50:56.674Z,2.70
2023-02-05T06:53:23.524Z,2.77
2023-02-05T06:55:50.075Z,2.73
2023-02-05T06:58:16.818Z,3.17
2023-02-05T07:00:43.331Z,3.00
2023-02-05T07:03:09.829Z,3.10
2023-02-05T07:05:36.558Z,2.60
2023-02-05T07:08:05.516Z,2.47
2023-02-05T07:10:32.559Z,2.80
2023-02-05T07:12:59.043Z,3.23
2023-02-05T07:15:25.651Z,3.40
2023-02-05T07:17:52.167Z,2.73
2023-02-05T07:20:18.819Z,2.87
2023-02-05T07:22:47.058Z,3.07
2023-02-05T07:25:13.624Z,3.57
2023-02-05T07:27:40.131Z,3.10
2023-02-05T07:30:07.345Z,3.00
2023-02-05T07:32:33.845Z,2.40
2023-02-05T07:35:00.345Z,2.20
2023-02-05T07:37:27.286Z,2.97
2023-02-05T07:39:53.890Z,3.47
2023-02-05T07:42:21.415Z,2.93
2023-02-05T07:44:54.475Z,4.00
2023-02-05T07:47:20.968Z,3.63
2023-02-05T07:49:47.492Z,2.93
2023-02-05T07:52:13.980Z,2.73
2023-02-05T07:54:40.477Z,2.80
2023-02-05T07:57:07.177Z,3.70
2023-02-05T07:59:33.766Z,5.23
2023-02-05T08:02:00.273Z,3.73
2023-02-05T08:04:26.794Z,3.70
2023-02-05T08:06:53.527Z,3.23
2023-02-05T08:09:20.038Z,2.57
2023-02-05T08:11:46.563Z,3.10
2023-02-05T08:14:13.056Z,2.70
2023-02-05T08:16:39.566Z,3.13
2023-02-05T08:19:07.403Z,2.87
2023-02-05T08:21:33.934Z,2.60
2023-02-05T08:24:01.058Z,2.73
2023-02-05T08:26:27.575Z,3.00
2023-02-05T08:28:55.198Z,2.97
2023-02-05T08:31:22.064Z,3.17
2023-02-05T08:33:50.661Z,2.47
2023-02-05T08:36:17.212Z,4.20
2023-02-05T08:38:43.812Z,3.03
2023-02-05T08:41:14.201Z,4.30
2023-02-05T08:43:46.322Z,8.20
2023-02-05T08:46:15.022Z,4.87
2023-02-05T08:48:41.738Z,3.80
2023-02-05T08:51:14.006Z,3.40
2023-02-05T08:53:41.816Z,3.13
2023-02-05T08:56:12.426Z,3.10
2023-02-05T08:58:39.706Z,3.70
2023-02-05T09:01:11.705Z,3.03
2023-02-05T09:03:38.594Z,3.70
2023-02-05T09:06:07.685Z,3.50
2023-02-05T09:08:34.243Z,5.30
2023-02-05T09:11:00.899Z,3.53
2023-02-05T09:13:27.443Z,4.17
2023-02-05T09:15:54.610Z,3.50
2023-02-05T09:18:21.633Z,4.77
2023-02-05T09:20:49.596Z,4.77
2023-02-05T09:23:18.265Z,4.80
2023-02-05T09:25:44.823Z,3.60
2023-02-05T09:28:13.247Z,3.87
2023-02-05T09:30:42.579Z,3.07
2023-02-05T09:33:11.378Z,3.40
2023-02-05T09:35:37.945Z,4.27
2023-02-05T09:38:05.559Z,3.10
2023-02-05T09:40:56.501Z,2.80
2023-02-05T09:43:47.833Z,3.17
2023-02-05T09:46:19.368Z,2.90
2023-02-05T09:48:51.411Z,3.57
2023-02-05T09:51:23.135Z,3.60
2023-02-05T09:53:56.412Z,3.20
2023-02-05T09:56:24.385Z,3.93
2023-02-05T09:58:53.250Z,3.73
2023-02-05T10:01:36.215Z,3.20
2023-02-05T10:04:06.439Z,3.77
2023-02-05T10:06:50.532Z,2.83
2023-02-05T10:09:35.824Z,2.83
2023-02-05T10:12:30.308Z,2.83
2023-02-05T10:15:19.596Z,3.20
2023-02-05T10:18:10.502Z,3.30
2023-02-05T10:20:52.266Z,2.40
2023-02-05T10:23:52.172Z,2.20
2023-02-05T10:26:18.688Z,2.90
2023-02-05T10:28:55.919Z,3.40
2023-02-05T10:32:05.379Z,2.87
2023-02-05T10:34:59.639Z,2.40
2023-02-05T10:37:39.261Z,5.17
2023-02-05T10:40:15.168Z,4.63
2023-02-05T10:42:51.468Z,3.83
2023-02-05T10:45:23.017Z,2.70
2023-02-05T10:48:19.732Z,2.77
2023-02-05T10:50:53.410Z,2.67
2023-02-05T10:53:23.320Z,3.10
2023-02-05T10:55:50.607Z,2.47
2023-02-05T10:58:38.819Z,2.70
2023-02-05T11:01:07.419Z,2.80
2023-02-05T11:03:35.666Z,3.17
2023-02-05T11:06:07.132Z,2.77
2023-02-05T11:08:39.961Z,3.50
2023-02-05T11:11:07.962Z,3.23
2023-02-05T11:13:41.928Z,3.53
2023-02-05T11:16:09.632Z,2.83
2023-02-05T11:18:40.268Z,2.80
2023-02-05T11:21:09.650Z,2.90
2023-02-05T11:23:42.949Z,3.10
2023-02-05T11:26:18.203Z,3.10
2023-02-05T11:28:45.058Z,3.40
2023-02-05T11:31:26.331Z,2.37
2023-02-05T11:34:08.222Z,3.00
2023-02-05T11:36:37.734Z,3.00
2023-02-05T11:39:06.522Z,2.70
2023-02-05T11:41:47.983Z,2.60
2023-02-05T11:44:20.533Z,2.67
2023-02-05T11:46:47.810Z,2.67
2023-02-05T11:49:22.401Z,2.60
2023-02-05T11:51:53.797Z,2.53
2023-02-05T11:54:22.384Z,2.57
2023-02-05T11:57:13.325Z,2.30
2023-02-05T11:59:40.934Z,3.10
2023-02-05T12:02:25.779Z,2.13
2023-02-05T12:04:58.305Z,3.60
2023-02-05T12:07:28.250Z,4.80
2023-02-05T12:09:59.548Z,3.00
2023-02-05T12:13:02.078Z,2.83
2023-02-05T12:16:02.544Z,3.70
2023-02-05T12:18:50.489Z,4.93
2023-02-05T12:21:37.137Z,3.13
2023-02-05T12:24:47.685Z,2.83
2023-02-05T12:27:23.372Z,2.50
2023-02-05T12:30:09.756Z,3.40
2023-02-05T12:32:50.898Z,3.60
2023-02-05T12:35:33.036Z,3.53
2023-02-05T12:38:32.541Z,2.80
2023-02-05T12:41:18.806Z,3.50
2023-02-05T12:43:47.543Z,3.67
2023-02-05T12:46:13.983Z,3.10
2023-02-05T12:48:56.998Z,3.03
2023-02-05T12:51:57.996Z,3.97
2023-02-05T12:54:55.439Z,2.90
2023-02-05T12:57:35.509Z,3.20
2023-02-05T13:00:13.163Z,4.03
2023-02-05T13:03:11.236Z,3.30
2023-02-05T13:05:47.218Z,3.40
2023-02-05T13:08:23.725Z,4.27
2023-02-05T13:10:54.687Z,3.90
2023-02-05T13:13:28.126Z,3.60
2023-02-05T13:16:12.075Z,2.87
2023-02-05T13:18:42.936Z,2.80
2023-02-05T13:21:36.796Z,2.97
2023-02-05T13:25:04.377Z,2.83
2023-02-05T13:27:59.459Z,3.30
2023-02-05T13:30:32.237Z,2.80
2023-02-05T13:33:03.762Z,3.80
2023-02-05T13:35:38.455Z,3.50
2023-02-05T13:38:24.812Z,2.53
2023-02-05T13:41:13.394Z,4.33
2023-02-05T13:44:04.835Z,2.90
2023-02-05T13:46:54.623Z,2.87
2023-02-05T13:49:51.041Z,3.10
2023-02-05T13:52:55.710Z,3.63
2023-02-05T13:55:33.710Z,3.30
2023-02-05T13:58:20.460Z,2.57
2023-02-05T14:00:54.811Z,2.37
2023-02-05T14:03:26.956Z,3.13
2023-02-05T14:05:53.696Z,2.83
2023-02-05T14:08:24.530Z,2.63
2023-02-05T14:11:04.000Z,3.10
2023-02-05T14:13:34.159Z,2.93
2023-02-05T14:16:32.361Z,2.57
2023-02-05T14:19:01.789Z,3.87
2023-02-05T14:21:31.145Z,3.90
2023-02-05T14:24:26.119Z,2.93
2023-02-05T14:27:00.667Z,3.23
2023-02-05T14:29:41.400Z,2.90
2023-02-05T14:32:34.436Z,3.90
2023-02-05T14:35:01.936Z,3.10
2023-02-05T14:37:40.296Z,4.03
2023-02-05T14:40:35.692Z,3.23
2023-02-05T14:43:15.876Z,3.60
2023-02-05T14:45:46.321Z,3.43
2023-02-05T14:48:26.892Z,3.03
2023-02-05T14:51:17.999Z,3.90
2023-02-05T14:53:55.864Z,3.40
2023-02-05T14:56:36.939Z,4.50
2023-02-05T14:59:19.544Z,3.60
2023-02-05T15:01:50.040Z,3.67
2023-02-05T15:04:33.790Z,16.10
2023-02-05T15:07:09.954Z,21.73
2023-02-05T15:10:00.396Z,7.50
2023-02-05T15:12:51.373Z,3.60
2023-02-05T15:15:36.550Z,3.10
2023-02-05T15:18:14.399Z,3.47
2023-02-05T15:20:47.500Z,2.93
2023-02-05T15:23:23.784Z,3.47
2023-02-05T15:25:55.754Z,2.60
2023-02-05T15:28:33.802Z,3.17
2023-02-05T15:31:22.871Z,3.20
2023-02-05T15:33:58.017Z,3.67
2023-02-05T15:36:45.542Z,3.27
2023-02-05T15:39:20.046Z,3.07
2023-02-05T15:41:47.882Z,2.97
2023-02-05T15:44:25.614Z,3.00
2023-02-05T15:46:53.100Z,4.00
2023-02-05T15:49:32.331Z,3.60
2023-02-05T15:52:00.501Z,5.50
2023-02-05T15:54:27.852Z,4.67
2023-02-05T15:56:54.894Z,5.70
2023-02-05T15:59:26.818Z,7.40
2023-02-05T16:02:16.178Z,4.67
2023-02-05T16:04:43.195Z,3.83
2023-02-05T16:07:19.807Z,4.97
2023-02-05T16:09:49.463Z,3.30
2023-02-05T16:12:16.528Z,3.20
2023-02-05T16:14:44.046Z,3.97
2023-02-05T16:17:20.918Z,2.90
2023-02-05T16:19:57.771Z,4.13
2023-02-05T16:22:40.555Z,6.10
2023-02-05T16:25:21.635Z,4.17
2023-02-05T16:27:50.720Z,2.90
2023-02-05T16:30:27.634Z,3.33
2023-02-05T16:32:56.655Z,3.97
2023-02-05T16:35:32.503Z,4.20
2023-02-05T16:38:00.765Z,3.40
2023-02-05T16:40:40.625Z,3.97
2023-02-05T16:43:31.462Z,2.93
2023-02-05T16:46:07.349Z,3.30
2023-02-05T16:48:49.411Z,3.70
2023-02-05T16:51:53.064Z,3.43
2023-02-05T16:54:27.378Z,4.53
2023-02-05T16:57:04.334Z,3.80
2023-02-05T16:59:45.175Z,4.30
2023-02-05T17:02:26.669Z,3.90
2023-02-05T17:04:56.729Z,3.63
2023-02-05T17:07:24.931Z,4.20
2023-02-05T17:09:51.510Z,3.50
2023-02-05T17:12:32.980Z,4.53
2023-02-05T17:15:05.085Z,3.50
2023-02-05T17:17:32.529Z,3.83
2023-02-05T17:20:11.675Z,3.40
2023-02-05T17:22:38.196Z,3.50
2023-02-05T17:25:06.375Z,3.47
2023-02-05T17:27:37.329Z,3.83
2023-02-05T17:30:13.769Z,3.90
2023-02-05T17:32:40.530Z,4.10
2023-02-05T17:35:17.287Z,9.10
2023-02-05T17:37:44.059Z,5.73
2023-02-05T17:40:14.794Z,7.87
2023-02-05T17:42:41.744Z,13.43
2023-02-05T17:45:18.613Z,6.20
2023-02-05T17:47:45.235Z,4.03
2023-02-05T17:50:12.252Z,4.50
2023-02-05T17:52:38.886Z,4.57
2023-02-05T17:55:06.680Z,4.93
2023-02-05T17:57:33.932Z,5.40
2023-02-05T18:00:04.885Z,5.93
2023-02-05T18:02:38.523Z,6.87
2023-02-05T18:05:05.825Z,6.10
2023-02-05T18:07:40.540Z,7.83
2023-02-05T18:10:11.479Z,7.60
2023-02-05T18:12:37.994Z,8.57
2023-02-05T18:15:05.169Z,9.40
2023-02-05T18:17:31.734Z,8.77
2023-02-05T18:19:58.241Z,9.13
2023-02-05T18:22:26.240Z,8.73
2023-02-05T18:24:52.964Z,10.67
2023-02-05T18:27:19.942Z,9.87
2023-02-05T18:29:46.517Z,9.43
2023-02-05T18:32:13.118Z,10.27
2023-02-05T18:34:40.173Z,12.57
2023-02-05T18:37:07.261Z,10.30
2023-02-05T18:39:34.898Z,12.10
2023-02-05T18:42:01.606Z,12.50
2023-02-05T18:44:28.186Z,11.57
2023-02-05T18:46:54.705Z,11.17
2023-02-05T18:49:21.329Z,14.30
2023-02-05T18:51:48.208Z,12.80
2023-02-05T18:54:15.649Z,11.53
2023-02-05T18:56:42.368Z,13.67
2023-02-05T18:59:13.539Z,14.33
2023-02-05T19:01:40.207Z,15.20
2023-02-05T19:04:13.009Z,15.20
2023-02-05T19:06:41.887Z,12.67
2023-02-05T19:09:08.365Z,12.10
2023-02-05T19:11:40.637Z,12.27
2023-02-05T19:14:11.052Z,13.57
2023-02-05T19:16:38.693Z,13.63
2023-02-05T19:19:06.536Z,17.30
2023-02-05T19:21:34.005Z,14.47
2023-02-05T19:24:05.335Z,14.23
2023-02-05T19:26:34.100Z,13.30
2023-02-05T19:29:04.516Z,13.27
2023-02-05T19:31:33.858Z,11.80
2023-02-05T19:34:01.550Z,14.23
2023-02-05T19:36:28.880Z,13.57
2023-02-05T19:38:56.437Z,12.13
2023-02-05T19:41:26.320Z,13.10
2023-02-05T19:44:00.386Z,13.93
2023-02-05T19:46:31.815Z,12.20
2023-02-05T19:49:04.787Z,13.90
2023-02-05T19:51:32.100Z,12.27
2023-02-05T19:54:00.731Z,14.47
2023-02-05T19:56:27.495Z,12.80
2023-02-05T19:58:55.757Z,12.90
2023-02-05T20:01:24.205Z,12.60
2023-02-05T20:03:53.647Z,11.50
2023-02-05T20:06:22.668Z,13.60
2023-02-05T20:08:49.255Z,13.27
2023-02-05T20:11:16.520Z,11.67
2023-02-05T20:13:44.020Z,12.43
2023-02-05T20:16:20.001Z,13.87
2023-02-05T20:18:47.440Z,14.00
2023-02-05T20:21:17.028Z,12.23
2023-02-05T20:23:43.973Z,16.60
2023-02-05T20:26:10.854Z,14.80
2023-02-05T20:28:59.470Z,13.97
2023-02-05T20:31:35.031Z,14.13
2023-02-05T20:34:26.296Z,13.70
2023-02-05T20:36:55.712Z,14.30
2023-02-05T20:39:24.260Z,14.17
2023-02-05T20:41:51.757Z,14.47
2023-02-05T20:44:18.947Z,14.93
2023-02-05T20:46:45.995Z,14.13
2023-02-05T20:49:14.549Z,15.43
2023-02-05T20:51:42.541Z,15.13
2023-02-05T20:54:10.048Z,13.93
2023-02-05T20:56:36.638Z,14.87
2023-02-05T20:59:05.368Z,15.23
2023-02-05T21:01:33.289Z,17.27
2023-02-05T21:04:03.739Z,16.20
2023-02-05T21:06:33.226Z,14.63
2023-02-05T21:09:00.185Z,15.13
2023-02-05T21:11:27.678Z,15.23
2023-02-05T21:13:56.000Z,14.33
2023-02-05T21:16:24.557Z,14.50
2023-02-05T21:18:51.856Z,13.47
2023-02-05T21:21:21.759Z,14.60
2023-02-05T21:23:52.253Z,13.93
2023-02-05T21:26:21.182Z,16.50
2023-02-05T21:28:47.950Z,14.70
2023-02-05T21:31:14.591Z,15.23
2023-02-05T21:33:41.335Z,16.30
2023-02-05T21:36:10.326Z,15.30
2023-02-05T21:38:42.126Z,18.17
2023-02-05T21:41:17.231Z,16.70
2023-02-05T21:43:48.725Z,15.43
2023-02-05T21:46:15.292Z,15.27
2023-02-05T21:48:41.830Z,15.30
2023-02-05T21:51:13.923Z,16.57
2023-02-05T21:53:41.189Z,16.60
2023-02-05T21:56:10.034Z,14.53
2023-02-05T21:58:38.218Z,14.40
2023-02-05T22:01:33.050Z,14.20
2023-02-05T22:04:02.155Z,13.47
2023-02-05T22:06:31.457Z,14.80
2023-02-05T22:08:59.203Z,14.13
2023-02-05T22:11:27.955Z,14.33
2023-02-05T22:13:56.224Z,14.20
2023-02-05T22:16:25.167Z,14.53
2023-02-05T22:18:52.663Z,12.47
2023-02-05T22:21:23.687Z,12.97
2023-02-05T22:23:52.101Z,13.33
2023-02-05T22:26:22.378Z,13.10
2023-02-05T22:28:49.228Z,12.60
2023-02-05T22:31:18.746Z,13.50
2023-02-05T22:33:47.425Z,14.00
2023-02-05T22:36:16.467Z,13.10
2023-02-05T22:38:43.177Z,13.57
2023-02-05T22:41:15.712Z,12.60
2023-02-05T22:43:42.304Z,13.80
2023-02-05T22:46:15.392Z,13.27
2023-02-05T22:48:44.457Z,14.43
2023-02-05T22:51:14.302Z,13.30
2023-02-05T22:53:41.452Z,13.70
2023-02-05T22:56:10.482Z,13.47
2023-02-05T22:58:42.972Z,13.87
2023-02-05T23:01:30.810Z,14.87
2023-02-05T23:03:58.076Z,13.50
2023-02-05T23:06:25.966Z,14.40
2023-02-05T23:08:57.121Z,14.60
2023-02-05T23:11:25.460Z,15.10
2023-02-05T23:13:52.279Z,13.77
2023-02-05T23:16:22.518Z,13.63
2023-02-05T23:18:50.043Z,15.27
2023-02-05T23:21:19.606Z,12.83
2023-02-05T23:23:46.658Z,15.03
2023-02-05T23:26:17.090Z,13.00
2023-02-05T23:28:43.673Z,15.03
2023-02-05T23:31:10.434Z,16.73
2023-02-05T23:33:37.562Z,15.90
2023-02-05T23:36:05.771Z,15.63
2023-02-05T23:38:33.467Z,16.50
2023-02-05T23:41:00.181Z,16.13
2023-02-05T23:43:27.144Z,16.70
2023-02-05T23:45:54.798Z,17.90
2023-02-05T23:48:21.309Z,15.67
2023-02-05T23:50:54.943Z,16.37
2023-02-05T23:53:21.501Z,14.93
2023-02-05T23:55:49.950Z,14.00
2023-02-05T23:58:19.039Z,15.53
